sensor_id;sensor_type;location;lat;lon;timestamp;temperature;humidity
21255;DHT22;10785;50.674;17.954;2022-10-12T00:01:46;5.60;58.40
21255;DHT22;10785;50.674;17.954;2022-10-12T00:04:16;5.60;25.20
21255;DHT22;10785;50.674;17.954;2022-10-12T00:06:45;5.60;99.90
21255;DHT22;10785;50.674;17.954;2022-10-12T00:09:16;5.60;1.00
21255;DHT22;10785;50.674;17.954;2022-10-12T00:11:45;5.70;99.90
21255;DHT22;10785;50.674;17.954;2022-10-12T00:14:14;5.70;1.00
21255;DHT22;10785;50.674;17.954;2022-10-12T00:16:44;5.70;1.00
21255;DHT22;10785;50.674;17.954;2022-10-12T00:19:13;5.60;1.00
21255;DHT22;10785;50.674;17.954;2022-10-12T00:21:42;5.60;1.00
21255;DHT22;10785;50.674;17.954;2022-10-12T00:24:11;5.60;1.00
21255;DHT22;10785;50.674;17.954;2022-10-12T00:26:42;5.60;1.00
21255;DHT22;10785;50.674;17.954;2022-10-12T00:29:11;5.50;1.00
21255;DHT22;10785;50.674;17.954;2022-10-12T00:31:41;5.50;1.00
21255;DHT22;10785;50.674;17.954;2022-10-12T00:34:10;5.40;99.90
21255;DHT22;10785;50.674;17.954;2022-10-12T00:36:39;5.40;99.90
21255;DHT22;10785;50.674;17.954;2022-10-12T00:39:09;5.40;1.00
21255;DHT22;10785;50.674;17.954;2022-10-12T00:41:40;5.40;99.90
21255;DHT22;10785;50.674;17.954;2022-10-12T00:44:34;5.30;1.00
21255;DHT22;10785;50.674;17.954;2022-10-12T00:47:07;5.30;99.90
21255;DHT22;10785;50.674;17.954;2022-10-12T00:49:40;5.30;99.90
21255;DHT22;10785;50.674;17.954;2022-10-12T00:52:11;5.30;1.00
21255;DHT22;10785;50.674;17.954;2022-10-12T00:54:46;5.20;1.00
21255;DHT22;10785;50.674;17.954;2022-10-12T00:57:16;5.30;1.00
21255;DHT22;10785;50.674;17.954;2022-10-12T00:59:50;5.20;1.00
21255;DHT22;10785;50.674;17.954;2022-10-12T01:02:23;5.20;1.00
21255;DHT22;10785;50.674;17.954;2022-10-12T01:04:54;5.20;1.00
21255;DHT22;10785;50.674;17.954;2022-10-12T01:07:24;5.20;1.00
21255;DHT22;10785;50.674;17.954;2022-10-12T01:09:53;5.10;1.00
21255;DHT22;10785;50.674;17.954;2022-10-12T01:12:23;5.10;1.00
21255;DHT22;10785;50.674;17.954;2022-10-12T01:14:54;5.10;1.00
21255;DHT22;10785;50.674;17.954;2022-10-12T01:17:33;5.00;1.00
21255;DHT22;10785;50.674;17.954;2022-10-12T01:20:27;5.00;1.00
21255;DHT22;10785;50.674;17.954;2022-10-12T01:23:33;5.00;1.00
21255;DHT22;10785;50.674;17.954;2022-10-12T01:29:28;5.00;33.90
21255;DHT22;10785;50.674;17.954;2022-10-12T01:32:07;5.00;99.90
21255;DHT22;10785;50.674;17.954;2022-10-12T01:34:43;4.90;1.00
21255;DHT22;10785;50.674;17.954;2022-10-12T01:37:22;4.90;1.00
21255;DHT22;10785;50.674;17.954;2022-10-12T01:39:56;4.90;99.90
21255;DHT22;10785;50.674;17.954;2022-10-12T01:42:33;4.90;99.90
21255;DHT22;10785;50.674;17.954;2022-10-12T01:45:07;4.90;99.90
21255;DHT22;10785;50.674;17.954;2022-10-12T01:47:39;4.90;99.90
21255;DHT22;10785;50.674;17.954;2022-10-12T01:50:11;4.80;99.90
21255;DHT22;10785;50.674;17.954;2022-10-12T01:52:45;4.80;1.00
21255;DHT22;10785;50.674;17.954;2022-10-12T01:55:28;4.80;1.00
21255;DHT22;10785;50.674;17.954;2022-10-12T01:58:24;4.80;1.00
21255;DHT22;10785;50.674;17.954;2022-10-12T02:00:59;4.80;1.00
21255;DHT22;10785;50.674;17.954;2022-10-12T02:03:34;4.80;1.00
21255;DHT22;10785;50.674;17.954;2022-10-12T02:06:10;4.70;1.00
21255;DHT22;10785;50.674;17.954;2022-10-12T02:08:45;4.70;1.00
21255;DHT22;10785;50.674;17.954;2022-10-12T02:11:19;4.70;1.00
21255;DHT22;10785;50.674;17.954;2022-10-12T02:13:51;4.60;1.00
21255;DHT22;10785;50.674;17.954;2022-10-12T02:16:26;4.70;1.00
21255;DHT22;10785;50.674;17.954;2022-10-12T02:18:59;4.60;1.00
21255;DHT22;10785;50.674;17.954;2022-10-12T02:21:30;4.60;1.00
21255;DHT22;10785;50.674;17.954;2022-10-12T02:24:03;4.60;1.00
21255;DHT22;10785;50.674;17.954;2022-10-12T02:26:35;4.60;1.00
21255;DHT22;10785;50.674;17.954;2022-10-12T02:29:08;4.70;30.40
21255;DHT22;10785;50.674;17.954;2022-10-12T02:31:41;4.80;99.90
21255;DHT22;10785;50.674;17.954;2022-10-12T02:34:18;4.80;99.90
21255;DHT22;10785;50.674;17.954;2022-10-12T02:36:52;4.90;99.90
21255;DHT22;10785;50.674;17.954;2022-10-12T02:39:27;4.90;99.90
21255;DHT22;10785;50.674;17.954;2022-10-12T02:42:02;4.90;99.90
21255;DHT22;10785;50.674;17.954;2022-10-12T02:44:37;4.90;99.90
21255;DHT22;10785;50.674;17.954;2022-10-12T02:47:07;4.90;99.90
21255;DHT22;10785;50.674;17.954;2022-10-12T02:49:39;4.90;99.90
21255;DHT22;10785;50.674;17.954;2022-10-12T02:52:09;4.80;99.90
21255;DHT22;10785;50.674;17.954;2022-10-12T02:54:39;4.70;99.90
21255;DHT22;10785;50.674;17.954;2022-10-12T02:57:08;4.60;99.90
21255;DHT22;10785;50.674;17.954;2022-10-12T02:59:38;4.50;99.90
21255;DHT22;10785;50.674;17.954;2022-10-12T03:02:07;4.40;56.30
21255;DHT22;10785;50.674;17.954;2022-10-12T03:04:39;4.30;99.90
21255;DHT22;10785;50.674;17.954;2022-10-12T03:07:08;4.20;99.90
21255;DHT22;10785;50.674;17.954;2022-10-12T03:09:37;4.20;99.90
21255;DHT22;10785;50.674;17.954;2022-10-12T03:12:06;4.20;99.90
21255;DHT22;10785;50.674;17.954;2022-10-12T03:14:35;4.10;99.90
21255;DHT22;10785;50.674;17.954;2022-10-12T03:17:04;4.20;99.90
21255;DHT22;10785;50.674;17.954;2022-10-12T03:19:33;4.30;99.90
21255;DHT22;10785;50.674;17.954;2022-10-12T03:22:06;4.30;99.90
21255;DHT22;10785;50.674;17.954;2022-10-12T03:24:35;4.30;99.90
21255;DHT22;10785;50.674;17.954;2022-10-12T03:27:05;4.30;99.90
21255;DHT22;10785;50.674;17.954;2022-10-12T03:29:34;4.30;99.90
21255;DHT22;10785;50.674;17.954;2022-10-12T03:32:03;4.20;99.90
21255;DHT22;10785;50.674;17.954;2022-10-12T03:34:32;4.10;99.90
21255;DHT22;10785;50.674;17.954;2022-10-12T03:37:02;4.10;99.90
21255;DHT22;10785;50.674;17.954;2022-10-12T03:39:32;4.00;65.60
21255;DHT22;10785;50.674;17.954;2022-10-12T03:42:01;4.00;99.90
21255;DHT22;10785;50.674;17.954;2022-10-12T03:44:30;4.00;99.90
21255;DHT22;10785;50.674;17.954;2022-10-12T03:46:59;4.00;99.90
21255;DHT22;10785;50.674;17.954;2022-10-12T03:49:29;4.00;99.90
21255;DHT22;10785;50.674;17.954;2022-10-12T03:51:58;4.00;99.90
21255;DHT22;10785;50.674;17.954;2022-10-12T03:54:27;4.00;99.90
21255;DHT22;10785;50.674;17.954;2022-10-12T03:56:57;4.10;99.90
21255;DHT22;10785;50.674;17.954;2022-10-12T03:59:26;4.10;1.00
21255;DHT22;10785;50.674;17.954;2022-10-12T04:01:55;4.10;99.90
21255;DHT22;10785;50.674;17.954;2022-10-12T04:04:25;4.20;99.90
21255;DHT22;10785;50.674;17.954;2022-10-12T04:06:54;4.20;1.00
21255;DHT22;10785;50.674;17.954;2022-10-12T04:09:23;4.10;1.00
21255;DHT22;10785;50.674;17.954;2022-10-12T04:11:52;4.10;99.90
21255;DHT22;10785;50.674;17.954;2022-10-12T04:14:23;4.10;1.00
21255;DHT22;10785;50.674;17.954;2022-10-12T04:16:53;4.10;1.00
21255;DHT22;10785;50.674;17.954;2022-10-12T04:19:22;4.10;99.90
21255;DHT22;10785;50.674;17.954;2022-10-12T04:21:51;4.10;1.00
21255;DHT22;10785;50.674;17.954;2022-10-12T04:24:21;4.00;1.00
21255;DHT22;10785;50.674;17.954;2022-10-12T04:26:50;4.00;1.00
21255;DHT22;10785;50.674;17.954;2022-10-12T04:29:19;4.00;1.00
21255;DHT22;10785;50.674;17.954;2022-10-12T04:31:50;4.00;1.00
21255;DHT22;10785;50.674;17.954;2022-10-12T04:34:19;3.90;1.00
21255;DHT22;10785;50.674;17.954;2022-10-12T04:36:49;3.80;1.00
21255;DHT22;10785;50.674;17.954;2022-10-12T04:39:18;3.80;1.00
21255;DHT22;10785;50.674;17.954;2022-10-12T04:41:47;3.70;1.00
21255;DHT22;10785;50.674;17.954;2022-10-12T04:44:17;3.70;1.00
21255;DHT22;10785;50.674;17.954;2022-10-12T04:46:46;3.70;1.00
21255;DHT22;10785;50.674;17.954;2022-10-12T04:49:17;3.70;1.00
21255;DHT22;10785;50.674;17.954;2022-10-12T04:51:46;3.60;1.00
21255;DHT22;10785;50.674;17.954;2022-10-12T04:54:15;3.60;1.00
21255;DHT22;10785;50.674;17.954;2022-10-12T04:56:44;3.60;1.00
21255;DHT22;10785;50.674;17.954;2022-10-12T04:59:14;3.60;1.00
21255;DHT22;10785;50.674;17.954;2022-10-12T05:01:44;3.60;1.00
21255;DHT22;10785;50.674;17.954;2022-10-12T05:04:13;3.60;1.00
21255;DHT22;10785;50.674;17.954;2022-10-12T05:06:44;3.60;1.00
21255;DHT22;10785;50.674;17.954;2022-10-12T05:09:13;3.60;1.00
21255;DHT22;10785;50.674;17.954;2022-10-12T05:11:44;3.60;1.00
21255;DHT22;10785;50.674;17.954;2022-10-12T05:14:13;3.60;1.00
21255;DHT22;10785;50.674;17.954;2022-10-12T05:16:42;3.60;1.00
21255;DHT22;10785;50.674;17.954;2022-10-12T05:19:11;3.60;1.00
21255;DHT22;10785;50.674;17.954;2022-10-12T05:21:40;3.60;1.00
21255;DHT22;10785;50.674;17.954;2022-10-12T05:24:11;3.70;1.00
21255;DHT22;10785;50.674;17.954;2022-10-12T05:26:40;3.70;1.00
21255;DHT22;10785;50.674;17.954;2022-10-12T05:29:09;3.70;1.00
21255;DHT22;10785;50.674;17.954;2022-10-12T05:31:39;3.80;1.00
21255;DHT22;10785;50.674;17.954;2022-10-12T05:34:09;3.80;1.00
21255;DHT22;10785;50.674;17.954;2022-10-12T05:36:39;3.80;1.00
21255;DHT22;10785;50.674;17.954;2022-10-12T05:39:08;3.90;1.00
21255;DHT22;10785;50.674;17.954;2022-10-12T05:41:39;3.90;1.00
21255;DHT22;10785;50.674;17.954;2022-10-12T05:44:09;3.90;1.00
21255;DHT22;10785;50.674;17.954;2022-10-12T05:46:38;3.90;1.00
21255;DHT22;10785;50.674;17.954;2022-10-12T05:49:07;4.00;1.00
21255;DHT22;10785;50.674;17.954;2022-10-12T05:51:37;4.00;1.00
21255;DHT22;10785;50.674;17.954;2022-10-12T05:54:07;4.10;1.00
21255;DHT22;10785;50.674;17.954;2022-10-12T05:56:36;4.20;1.00
21255;DHT22;10785;50.674;17.954;2022-10-12T05:59:07;4.30;1.00
21255;DHT22;10785;50.674;17.954;2022-10-12T06:01:37;4.30;1.00
21255;DHT22;10785;50.674;17.954;2022-10-12T06:04:07;4.40;1.00
21255;DHT22;10785;50.674;17.954;2022-10-12T06:06:36;4.50;1.00
21255;DHT22;10785;50.674;17.954;2022-10-12T06:09:05;4.60;1.00
21255;DHT22;10785;50.674;17.954;2022-10-12T06:11:34;4.60;1.00
21255;DHT22;10785;50.674;17.954;2022-10-12T06:14:04;4.60;1.00
21255;DHT22;10785;50.674;17.954;2022-10-12T06:16:34;4.70;1.00
21255;DHT22;10785;50.674;17.954;2022-10-12T06:19:04;4.90;1.00
21255;DHT22;10785;50.674;17.954;2022-10-12T06:21:33;5.00;1.00
21255;DHT22;10785;50.674;17.954;2022-10-12T06:24:02;5.00;1.00
21255;DHT22;10785;50.674;17.954;2022-10-12T06:26:32;5.10;1.00
21255;DHT22;10785;50.674;17.954;2022-10-12T06:29:01;5.20;1.00
21255;DHT22;10785;50.674;17.954;2022-10-12T06:31:30;5.40;1.00
21255;DHT22;10785;50.674;17.954;2022-10-12T06:34:01;5.50;1.00
21255;DHT22;10785;50.674;17.954;2022-10-12T06:36:31;5.50;1.00
21255;DHT22;10785;50.674;17.954;2022-10-12T06:39:00;5.60;1.00
21255;DHT22;10785;50.674;17.954;2022-10-12T06:41:29;5.70;1.00
21255;DHT22;10785;50.674;17.954;2022-10-12T06:43:58;5.70;1.00
21255;DHT22;10785;50.674;17.954;2022-10-12T06:46:28;5.80;1.00
21255;DHT22;10785;50.674;17.954;2022-10-12T06:48:57;6.00;1.00
21255;DHT22;10785;50.674;17.954;2022-10-12T06:51:28;6.10;1.00
21255;DHT22;10785;50.674;17.954;2022-10-12T06:53:58;6.10;99.90
21255;DHT22;10785;50.674;17.954;2022-10-12T06:56:27;6.20;99.90
21255;DHT22;10785;50.674;17.954;2022-10-12T06:58:57;6.30;12.70
21255;DHT22;10785;50.674;17.954;2022-10-12T07:01:26;6.40;1.00
21255;DHT22;10785;50.674;17.954;2022-10-12T07:03:55;6.40;1.00
21255;DHT22;10785;50.674;17.954;2022-10-12T07:06:28;6.50;1.00
21255;DHT22;10785;50.674;17.954;2022-10-12T07:08:58;6.60;99.90
21255;DHT22;10785;50.674;17.954;2022-10-12T07:11:27;6.70;1.00
21255;DHT22;10785;50.674;17.954;2022-10-12T07:13:57;6.90;51.40
21255;DHT22;10785;50.674;17.954;2022-10-12T07:16:26;7.00;99.90
21255;DHT22;10785;50.674;17.954;2022-10-12T07:18:55;7.10;1.00
21255;DHT22;10785;50.674;17.954;2022-10-12T07:21:25;7.30;1.00
21255;DHT22;10785;50.674;17.954;2022-10-12T07:23:55;7.40;1.00
21255;DHT22;10785;50.674;17.954;2022-10-12T07:26:25;7.40;1.00
21255;DHT22;10785;50.674;17.954;2022-10-12T07:28:54;7.50;1.00
21255;DHT22;10785;50.674;17.954;2022-10-12T07:31:23;7.60;1.00
21255;DHT22;10785;50.674;17.954;2022-10-12T07:33:53;7.70;1.00
21255;DHT22;10785;50.674;17.954;2022-10-12T07:36:23;7.80;1.00
21255;DHT22;10785;50.674;17.954;2022-10-12T07:39:13;8.00;99.90
21255;DHT22;10785;50.674;17.954;2022-10-12T07:41:43;8.00;99.90
21255;DHT22;10785;50.674;17.954;2022-10-12T07:44:13;8.20;99.90
21255;DHT22;10785;50.674;17.954;2022-10-12T07:46:42;8.30;33.40
21255;DHT22;10785;50.674;17.954;2022-10-12T07:49:12;8.50;1.00
21255;DHT22;10785;50.674;17.954;2022-10-12T07:51:41;8.80;1.00
21255;DHT22;10785;50.674;17.954;2022-10-12T07:54:12;8.90;1.00
21255;DHT22;10785;50.674;17.954;2022-10-12T07:56:49;9.00;99.90
21255;DHT22;10785;50.674;17.954;2022-10-12T07:59:19;9.30;99.90
21255;DHT22;10785;50.674;17.954;2022-10-12T08:01:48;9.30;26.80
21255;DHT22;10785;50.674;17.954;2022-10-12T08:04:18;9.50;1.00
21255;DHT22;10785;50.674;17.954;2022-10-12T08:06:47;9.70;33.80
21255;DHT22;10785;50.674;17.954;2022-10-12T08:09:18;9.80;1.00
21255;DHT22;10785;50.674;17.954;2022-10-12T08:11:47;9.90;99.90
21255;DHT22;10785;50.674;17.954;2022-10-12T08:14:17;10.00;1.00
21255;DHT22;10785;50.674;17.954;2022-10-12T08:16:47;10.20;1.00
21255;DHT22;10785;50.674;17.954;2022-10-12T08:19:17;10.40;1.00
21255;DHT22;10785;50.674;17.954;2022-10-12T08:21:48;10.60;1.00
21255;DHT22;10785;50.674;17.954;2022-10-12T08:24:21;10.60;1.00
21255;DHT22;10785;50.674;17.954;2022-10-12T08:26:52;10.70;1.00
21255;DHT22;10785;50.674;17.954;2022-10-12T08:29:27;10.70;1.00
21255;DHT22;10785;50.674;17.954;2022-10-12T08:31:56;10.80;1.00
21255;DHT22;10785;50.674;17.954;2022-10-12T08:34:29;10.90;1.00
21255;DHT22;10785;50.674;17.954;2022-10-12T08:36:59;11.00;1.00
21255;DHT22;10785;50.674;17.954;2022-10-12T08:39:30;10.90;1.00
21255;DHT22;10785;50.674;17.954;2022-10-12T08:42:10;11.00;1.00
21255;DHT22;10785;50.674;17.954;2022-10-12T08:44:57;11.10;1.00
21255;DHT22;10785;50.674;17.954;2022-10-12T08:47:36;11.30;1.00
21255;DHT22;10785;50.674;17.954;2022-10-12T08:50:15;11.30;1.00
21255;DHT22;10785;50.674;17.954;2022-10-12T08:52:52;11.40;99.90
21255;DHT22;10785;50.674;17.954;2022-10-12T08:55:33;11.60;99.90
21255;DHT22;10785;50.674;17.954;2022-10-12T08:58:12;11.70;1.00
21255;DHT22;10785;50.674;17.954;2022-10-12T09:00:46;11.70;99.90
21255;DHT22;10785;50.674;17.954;2022-10-12T09:03:37;11.80;99.90
21255;DHT22;10785;50.674;17.954;2022-10-12T09:06:12;11.80;1.00
21255;DHT22;10785;50.674;17.954;2022-10-12T09:09:00;11.90;1.00
21255;DHT22;10785;50.674;17.954;2022-10-12T09:11:49;11.80;1.00
21255;DHT22;10785;50.674;17.954;2022-10-12T09:14:25;12.10;99.90
21255;DHT22;10785;50.674;17.954;2022-10-12T09:16:56;12.20;1.00
21255;DHT22;10785;50.674;17.954;2022-10-12T09:19:32;12.30;99.90
21255;DHT22;10785;50.674;17.954;2022-10-12T09:22:04;12.20;99.90
21255;DHT22;10785;50.674;17.954;2022-10-12T09:24:38;12.30;1.00
21255;DHT22;10785;50.674;17.954;2022-10-12T09:27:13;12.50;99.90
21255;DHT22;10785;50.674;17.954;2022-10-12T09:29:45;12.80;1.00
21255;DHT22;10785;50.674;17.954;2022-10-12T09:32:34;12.90;99.90
21255;DHT22;10785;50.674;17.954;2022-10-12T09:35:11;12.90;1.00
21255;DHT22;10785;50.674;17.954;2022-10-12T09:37:41;13.00;99.90
21255;DHT22;10785;50.674;17.954;2022-10-12T09:40:22;13.10;99.90
21255;DHT22;10785;50.674;17.954;2022-10-12T09:42:55;13.10;99.90
21255;DHT22;10785;50.674;17.954;2022-10-12T09:45:25;13.20;99.90
21255;DHT22;10785;50.674;17.954;2022-10-12T09:48:17;13.30;1.00
21255;DHT22;10785;50.674;17.954;2022-10-12T09:50:50;13.40;1.00
21255;DHT22;10785;50.674;17.954;2022-10-12T09:53:27;13.40;1.00
21255;DHT22;10785;50.674;17.954;2022-10-12T09:56:01;13.50;1.00
21255;DHT22;10785;50.674;17.954;2022-10-12T09:58:40;13.60;1.00
21255;DHT22;10785;50.674;17.954;2022-10-12T10:01:17;13.70;1.00
21255;DHT22;10785;50.674;17.954;2022-10-12T10:03:49;13.80;1.00
21255;DHT22;10785;50.674;17.954;2022-10-12T10:06:22;13.70;1.00
21255;DHT22;10785;50.674;17.954;2022-10-12T10:08:52;13.80;1.00
21255;DHT22;10785;50.674;17.954;2022-10-12T10:11:26;13.90;1.00
21255;DHT22;10785;50.674;17.954;2022-10-12T10:14:00;14.00;1.00
21255;DHT22;10785;50.674;17.954;2022-10-12T10:16:30;13.90;1.00
21255;DHT22;10785;50.674;17.954;2022-10-12T10:19:00;14.10;1.00
21255;DHT22;10785;50.674;17.954;2022-10-12T10:21:32;14.00;99.90
21255;DHT22;10785;50.674;17.954;2022-10-12T10:24:03;14.00;1.00
21255;DHT22;10785;50.674;17.954;2022-10-12T10:26:51;14.10;1.00
21255;DHT22;10785;50.674;17.954;2022-10-12T10:29:37;14.00;99.90
21255;DHT22;10785;50.674;17.954;2022-10-12T10:32:15;14.00;1.00
21255;DHT22;10785;50.674;17.954;2022-10-12T10:35:03;14.20;1.00
21255;DHT22;10785;50.674;17.954;2022-10-12T10:37:32;14.30;99.90
21255;DHT22;10785;50.674;17.954;2022-10-12T10:40:02;14.20;99.90
21255;DHT22;10785;50.674;17.954;2022-10-12T10:42:33;14.30;99.90
21255;DHT22;10785;50.674;17.954;2022-10-12T10:45:05;14.40;99.90
21255;DHT22;10785;50.674;17.954;2022-10-12T10:47:42;14.50;1.00
21255;DHT22;10785;50.674;17.954;2022-10-12T10:50:23;14.50;55.00
21255;DHT22;10785;50.674;17.954;2022-10-12T10:52:55;14.60;99.90
21255;DHT22;10785;50.674;17.954;2022-10-12T10:55:28;14.70;1.00
21255;DHT22;10785;50.674;17.954;2022-10-12T10:58:02;14.60;1.00
21255;DHT22;10785;50.674;17.954;2022-10-12T11:00:39;14.60;1.00
21255;DHT22;10785;50.674;17.954;2022-10-12T11:03:13;14.80;1.00
21255;DHT22;10785;50.674;17.954;2022-10-12T11:05:47;14.90;1.00
21255;DHT22;10785;50.674;17.954;2022-10-12T11:08:21;15.00;91.30
21255;DHT22;10785;50.674;17.954;2022-10-12T11:10:55;14.70;1.00
21255;DHT22;10785;50.674;17.954;2022-10-12T11:13:30;14.80;1.00
21255;DHT22;10785;50.674;17.954;2022-10-12T11:16:03;14.90;99.90
21255;DHT22;10785;50.674;17.954;2022-10-12T11:18:37;14.90;99.90
21255;DHT22;10785;50.674;17.954;2022-10-12T11:21:11;15.00;1.00
21255;DHT22;10785;50.674;17.954;2022-10-12T11:23:44;15.20;1.00
21255;DHT22;10785;50.674;17.954;2022-10-12T11:26:24;15.20;1.00
21255;DHT22;10785;50.674;17.954;2022-10-12T11:28:57;15.10;23.60
21255;DHT22;10785;50.674;17.954;2022-10-12T11:31:31;15.20;1.00
21255;DHT22;10785;50.674;17.954;2022-10-12T11:34:04;15.40;1.00
21255;DHT22;10785;50.674;17.954;2022-10-12T11:36:42;15.50;99.90
21255;DHT22;10785;50.674;17.954;2022-10-12T11:39:35;15.50;1.00
21255;DHT22;10785;50.674;17.954;2022-10-12T11:42:11;15.60;1.00
21255;DHT22;10785;50.674;17.954;2022-10-12T11:44:50;15.30;48.80
21255;DHT22;10785;50.674;17.954;2022-10-12T11:47:30;15.30;1.00
21255;DHT22;10785;50.674;17.954;2022-10-12T11:50:04;15.30;1.00
21255;DHT22;10785;50.674;17.954;2022-10-12T11:52:37;15.50;1.00
21255;DHT22;10785;50.674;17.954;2022-10-12T11:55:24;15.50;1.00
21255;DHT22;10785;50.674;17.954;2022-10-12T11:57:58;15.50;53.90
21255;DHT22;10785;50.674;17.954;2022-10-12T12:00:34;15.50;1.00
21255;DHT22;10785;50.674;17.954;2022-10-12T12:03:15;15.30;1.00
21255;DHT22;10785;50.674;17.954;2022-10-12T12:05:47;15.10;99.90
21255;DHT22;10785;50.674;17.954;2022-10-12T12:08:21;14.80;1.00
21255;DHT22;10785;50.674;17.954;2022-10-12T12:11:05;14.80;99.90
21255;DHT22;10785;50.674;17.954;2022-10-12T12:13:45;14.60;69.20
21255;DHT22;10785;50.674;17.954;2022-10-12T12:16:28;14.60;1.00
21255;DHT22;10785;50.674;17.954;2022-10-12T12:22:22;14.20;1.00
21255;DHT22;10785;50.674;17.954;2022-10-12T12:25:12;14.10;1.00
21255;DHT22;10785;50.674;17.954;2022-10-12T12:27:45;14.20;1.00
21255;DHT22;10785;50.674;17.954;2022-10-12T12:30:37;14.10;1.00
21255;DHT22;10785;50.674;17.954;2022-10-12T12:33:26;14.00;1.00
21255;DHT22;10785;50.674;17.954;2022-10-12T12:35:59;14.00;1.00
21255;DHT22;10785;50.674;17.954;2022-10-12T12:38:31;14.00;1.00
21255;DHT22;10785;50.674;17.954;2022-10-12T12:41:10;14.10;1.00
21255;DHT22;10785;50.674;17.954;2022-10-12T12:43:55;14.20;1.00
21255;DHT22;10785;50.674;17.954;2022-10-12T12:49:36;14.10;1.00
21255;DHT22;10785;50.674;17.954;2022-10-12T12:52:15;14.10;1.00
21255;DHT22;10785;50.674;17.954;2022-10-12T12:55:11;14.30;1.80
21255;DHT22;10785;50.674;17.954;2022-10-12T12:57:59;14.30;99.90
21255;DHT22;10785;50.674;17.954;2022-10-12T13:00:36;14.30;99.90
21255;DHT22;10785;50.674;17.954;2022-10-12T13:03:44;14.30;99.90
21255;DHT22;10785;50.674;17.954;2022-10-12T13:06:54;14.40;1.00
21255;DHT22;10785;50.674;17.954;2022-10-12T13:09:46;14.50;1.00
21255;DHT22;10785;50.674;17.954;2022-10-12T13:12:27;14.50;99.90
21255;DHT22;10785;50.674;17.954;2022-10-12T13:15:28;14.50;1.00
21255;DHT22;10785;50.674;17.954;2022-10-12T13:18:30;14.60;1.00
21255;DHT22;10785;50.674;17.954;2022-10-12T13:21:17;14.60;1.00
21255;DHT22;10785;50.674;17.954;2022-10-12T13:23:50;14.50;1.00
21255;DHT22;10785;50.674;17.954;2022-10-12T13:26:24;14.40;99.90
21255;DHT22;10785;50.674;17.954;2022-10-12T13:28:56;14.40;99.90
21255;DHT22;10785;50.674;17.954;2022-10-12T13:31:33;14.50;1.00
21255;DHT22;10785;50.674;17.954;2022-10-12T13:34:10;14.60;1.00
21255;DHT22;10785;50.674;17.954;2022-10-12T13:36:51;14.60;1.00
21255;DHT22;10785;50.674;17.954;2022-10-12T13:39:23;14.70;1.00
21255;DHT22;10785;50.674;17.954;2022-10-12T13:41:55;14.80;45.70
21255;DHT22;10785;50.674;17.954;2022-10-12T13:44:26;14.70;93.20
21255;DHT22;10785;50.674;17.954;2022-10-12T13:46:57;14.70;1.00
21255;DHT22;10785;50.674;17.954;2022-10-12T13:49:40;14.60;1.00
21255;DHT22;10785;50.674;17.954;2022-10-12T13:52:19;14.60;1.00
21255;DHT22;10785;50.674;17.954;2022-10-12T13:54:49;14.60;1.00
21255;DHT22;10785;50.674;17.954;2022-10-12T13:57:22;14.60;1.00
21255;DHT22;10785;50.674;17.954;2022-10-12T13:59:56;14.60;99.90
21255;DHT22;10785;50.674;17.954;2022-10-12T14:02:30;14.70;1.00
21255;DHT22;10785;50.674;17.954;2022-10-12T14:05:01;14.70;99.90
21255;DHT22;10785;50.674;17.954;2022-10-12T14:07:34;14.60;1.00
21255;DHT22;10785;50.674;17.954;2022-10-12T14:10:06;14.70;99.90
21255;DHT22;10785;50.674;17.954;2022-10-12T14:12:39;14.60;99.90
21255;DHT22;10785;50.674;17.954;2022-10-12T14:15:11;14.60;1.00
21255;DHT22;10785;50.674;17.954;2022-10-12T14:17:42;14.60;20.40
21255;DHT22;10785;50.674;17.954;2022-10-12T14:20:23;14.60;99.90
21255;DHT22;10785;50.674;17.954;2022-10-12T14:22:55;14.60;1.00
21255;DHT22;10785;50.674;17.954;2022-10-12T14:25:26;14.60;1.00
21255;DHT22;10785;50.674;17.954;2022-10-12T14:27:59;14.60;99.90
21255;DHT22;10785;50.674;17.954;2022-10-12T14:30:31;14.60;1.00
21255;DHT22;10785;50.674;17.954;2022-10-12T14:33:10;14.50;1.00
21255;DHT22;10785;50.674;17.954;2022-10-12T14:35:41;14.40;99.90
21255;DHT22;10785;50.674;17.954;2022-10-12T14:38:36;14.40;1.00
21255;DHT22;10785;50.674;17.954;2022-10-12T14:41:31;14.40;99.90
21255;DHT22;10785;50.674;17.954;2022-10-12T14:44:05;14.30;1.00
21255;DHT22;10785;50.674;17.954;2022-10-12T14:46:39;14.30;1.00
21255;DHT22;10785;50.674;17.954;2022-10-12T14:49:14;14.30;1.00
21255;DHT22;10785;50.674;17.954;2022-10-12T14:51:45;14.30;99.90
21255;DHT22;10785;50.674;17.954;2022-10-12T14:54:15;14.20;1.00
21255;DHT22;10785;50.674;17.954;2022-10-12T14:56:44;14.20;99.90
21255;DHT22;10785;50.674;17.954;2022-10-12T14:59:14;14.10;99.90
21255;DHT22;10785;50.674;17.954;2022-10-12T15:01:44;14.10;1.00
21255;DHT22;10785;50.674;17.954;2022-10-12T15:04:17;14.10;1.00
21255;DHT22;10785;50.674;17.954;2022-10-12T15:06:47;14.00;1.00
21255;DHT22;10785;50.674;17.954;2022-10-12T15:09:17;14.00;6.70
21255;DHT22;10785;50.674;17.954;2022-10-12T15:11:47;13.90;1.00
21255;DHT22;10785;50.674;17.954;2022-10-12T15:14:17;13.90;33.60
21255;DHT22;10785;50.674;17.954;2022-10-12T15:16:46;13.80;1.00
21255;DHT22;10785;50.674;17.954;2022-10-12T15:19:16;13.80;1.00
21255;DHT22;10785;50.674;17.954;2022-10-12T15:21:46;13.70;99.90
21255;DHT22;10785;50.674;17.954;2022-10-12T15:24:19;13.70;1.00
21255;DHT22;10785;50.674;17.954;2022-10-12T15:26:48;13.60;1.00
21255;DHT22;10785;50.674;17.954;2022-10-12T15:29:19;13.60;99.90
21255;DHT22;10785;50.674;17.954;2022-10-12T15:31:48;13.50;1.00
21255;DHT22;10785;50.674;17.954;2022-10-12T15:34:19;13.50;99.90
21255;DHT22;10785;50.674;17.954;2022-10-12T15:36:50;13.40;99.90
21255;DHT22;10785;50.674;17.954;2022-10-12T15:39:19;13.40;1.00
21255;DHT22;10785;50.674;17.954;2022-10-12T15:41:50;13.30;1.00
21255;DHT22;10785;50.674;17.954;2022-10-12T15:44:21;13.20;1.00
21255;DHT22;10785;50.674;17.954;2022-10-12T15:46:52;13.10;99.90
21255;DHT22;10785;50.674;17.954;2022-10-12T15:49:21;13.00;1.00
21255;DHT22;10785;50.674;17.954;2022-10-12T15:51:52;12.90;1.00
21255;DHT22;10785;50.674;17.954;2022-10-12T15:54:22;12.80;1.00
21255;DHT22;10785;50.674;17.954;2022-10-12T15:56:53;12.70;99.90
21255;DHT22;10785;50.674;17.954;2022-10-12T15:59:25;12.70;1.00
21255;DHT22;10785;50.674;17.954;2022-10-12T16:01:55;12.50;99.90
21255;DHT22;10785;50.674;17.954;2022-10-12T16:04:26;12.40;1.00
21255;DHT22;10785;50.674;17.954;2022-10-12T16:06:57;12.30;1.00
21255;DHT22;10785;50.674;17.954;2022-10-12T16:09:27;12.20;99.90
21255;DHT22;10785;50.674;17.954;2022-10-12T16:11:57;12.20;99.90
21255;DHT22;10785;50.674;17.954;2022-10-12T16:14:27;12.20;99.90
21255;DHT22;10785;50.674;17.954;2022-10-12T16:16:56;12.20;99.90
21255;DHT22;10785;50.674;17.954;2022-10-12T16:19:26;12.10;1.00
21255;DHT22;10785;50.674;17.954;2022-10-12T16:21:56;12.00;1.00